X  CloseMetar Aviation Weather Data     YMAV Avalon Airport

Temperature

9°C Temperature

9°C Dewpoint

100% Humidity



Wind

10 KM/H

 6 MPH

 3 M/S

 5 KTS



260°
Due West
Current Conditions

Overcast Overcast
Pressure 1024.92 (hPa) - 30.27 (in)
Visibility 6.2 (mi) - 10 (km)
Airport
Airport-code YMAV

Location Avalon Airport 24 (km)

Metar:
YMAV 262200Z AUTO 26005KT 9999 // OVC050 09/09 Q1025 RF00.0/000.8

Time: 27-09-2020 08:00